createdAt,value
2023-03-21T00:01:04.812Z,30.23
2023-03-21T00:03:35.357Z,29.10
2023-03-21T00:06:07.679Z,28.20
2023-03-21T00:08:36.363Z,30.47
2023-03-21T00:11:07.234Z,28.97
2023-03-21T00:13:38.709Z,28.43
2023-03-21T00:16:17.085Z,28.63
2023-03-21T00:18:53.273Z,30.10
2023-03-21T00:24:16.470Z,28.77
2023-03-21T00:26:44.452Z,28.80
2023-03-21T00:29:12.492Z,27.80
2023-03-21T00:31:40.508Z,29.07
2023-03-21T00:36:38.669Z,29.10
2023-03-21T00:39:08.417Z,29.27
2023-03-21T00:41:42.936Z,28.60
2023-03-21T00:44:13.690Z,27.93
2023-03-21T00:46:51.601Z,28.43
2023-03-21T00:49:27.635Z,28.37
2023-03-21T00:51:59.509Z,27.50
2023-03-21T00:54:33.505Z,27.67
2023-03-21T00:57:03.068Z,27.13
2023-03-21T00:59:31.938Z,24.67
2023-03-21T01:02:00.786Z,27.10
2023-03-21T01:04:30.189Z,26.40
2023-03-21T01:06:58.141Z,25.93
2023-03-21T01:09:26.519Z,26.67
2023-03-21T01:11:54.812Z,26.03
2023-03-21T01:14:24.285Z,26.50
2023-03-21T01:16:55.717Z,26.00
2023-03-21T01:19:41.010Z,25.40
2023-03-21T01:22:17.596Z,24.87
2023-03-21T01:24:53.137Z,25.70
2023-03-21T01:27:24.825Z,24.03
2023-03-21T01:29:53.091Z,25.57
2023-03-21T01:32:21.085Z,24.47
2023-03-21T01:34:49.321Z,24.20
2023-03-21T01:37:20.002Z,23.17
2023-03-21T01:39:50.677Z,23.63
2023-03-21T01:42:21.965Z,23.67
2023-03-21T01:44:55.289Z,23.83
2023-03-21T01:47:23.675Z,23.50
2023-03-21T01:50:06.230Z,24.43
2023-03-21T01:52:54.221Z,22.83
2023-03-21T01:55:29.366Z,24.13
2023-03-21T01:58:06.707Z,22.50
2023-03-21T02:00:53.957Z,22.40
2023-03-21T02:03:38.255Z,23.67
2023-03-21T02:06:36.674Z,23.67
2023-03-21T02:09:20.705Z,24.03
2023-03-21T02:11:49.033Z,25.30
2023-03-21T02:14:29.021Z,23.73
2023-03-21T02:17:27.585Z,22.57
2023-03-21T02:20:36.619Z,23.90
2023-03-21T02:23:40.978Z,23.40
2023-03-21T02:26:45.066Z,23.73
2023-03-21T02:29:46.494Z,23.40
2023-03-21T02:32:36.672Z,24.00
2023-03-21T02:35:37.126Z,23.20
2023-03-21T02:38:19.281Z,24.47
2023-03-21T02:40:53.465Z,25.47
2023-03-21T02:43:35.257Z,24.93
2023-03-21T02:46:09.391Z,25.93
2023-03-21T02:48:50.308Z,24.77
2023-03-21T02:51:22.372Z,25.80
2023-03-21T02:54:23.617Z,25.43
2023-03-21T02:56:49.887Z,24.20
2023-03-21T02:59:20.464Z,25.60
2023-03-21T03:01:48.560Z,25.03
2023-03-21T03:04:22.007Z,23.70
2023-03-21T03:07:10.626Z,23.63
2023-03-21T03:09:56.184Z,23.57
2023-03-21T03:12:32.794Z,22.17
2023-03-21T03:15:10.636Z,21.90
2023-03-21T03:17:49.311Z,21.83
2023-03-21T03:20:40.205Z,20.63
2023-03-21T03:23:18.486Z,22.80
2023-03-21T03:25:54.914Z,21.50
2023-03-21T03:28:27.277Z,22.20
2023-03-21T03:31:08.661Z,22.17
2023-03-21T03:33:47.540Z,21.10
2023-03-21T03:36:30.999Z,20.27
2023-03-21T03:39:04.418Z,20.43
2023-03-21T03:42:02.885Z,21.37
2023-03-21T03:44:31.014Z,20.70
2023-03-21T03:47:08.696Z,19.90
2023-03-21T03:49:42.862Z,20.33
2023-03-21T03:52:14.931Z,20.33
2023-03-21T03:54:50.994Z,20.23
2023-03-21T03:57:21.995Z,20.13
2023-03-21T03:59:50.254Z,19.30
2023-03-21T04:02:30.130Z,19.77
2023-03-21T04:04:58.344Z,20.07
2023-03-21T04:07:27.758Z,19.77
2023-03-21T04:09:59.128Z,19.10
2023-03-21T04:12:28.417Z,19.50
2023-03-21T04:15:15.118Z,19.83
2023-03-21T04:17:48.882Z,19.60
2023-03-21T04:20:26.667Z,19.60
2023-03-21T04:23:04.055Z,18.80
2023-03-21T04:25:35.818Z,19.43
2023-03-21T04:28:07.641Z,19.53
2023-03-21T04:31:00.393Z,19.60
2023-03-21T04:33:32.801Z,18.87
2023-03-21T04:36:00.783Z,19.80
2023-03-21T04:38:32.346Z,19.43
2023-03-21T04:41:04.194Z,18.80
2023-03-21T04:43:33.624Z,18.77
2023-03-21T04:46:01.645Z,18.10
2023-03-21T04:48:31.878Z,18.83
2023-03-21T04:51:01.611Z,18.57
2023-03-21T04:53:30.525Z,17.93
2023-03-21T04:55:58.663Z,17.77
2023-03-21T04:58:26.690Z,17.77
2023-03-21T05:00:57.397Z,17.40
2023-03-21T05:03:25.431Z,17.63
2023-03-21T05:05:53.421Z,17.90
2023-03-21T05:08:21.314Z,17.77
2023-03-21T05:10:49.346Z,18.93
2023-03-21T05:13:17.415Z,17.23
2023-03-21T05:15:45.363Z,16.67
2023-03-21T05:18:15.303Z,17.27
2023-03-21T05:20:59.707Z,16.43
2023-03-21T05:23:31.740Z,16.83
2023-03-21T05:26:00.090Z,16.40
2023-03-21T05:28:48.058Z,16.60
2023-03-21T05:31:16.800Z,15.63
2023-03-21T05:33:49.136Z,15.97
2023-03-21T05:36:19.877Z,15.57
2023-03-21T05:38:48.046Z,15.60
2023-03-21T05:41:19.282Z,17.03
2023-03-21T05:43:47.895Z,16.37
2023-03-21T05:46:17.158Z,16.33
2023-03-21T05:48:46.104Z,15.53
2023-03-21T05:51:17.799Z,16.87
2023-03-21T05:53:48.468Z,14.63
2023-03-21T05:56:17.503Z,15.70
2023-03-21T05:58:51.051Z,15.43
2023-03-21T06:01:20.227Z,15.70
2023-03-21T06:03:56.743Z,15.23
2023-03-21T06:06:29.057Z,14.63
2023-03-21T06:09:00.258Z,14.77
2023-03-21T06:11:32.428Z,15.07
2023-03-21T06:14:24.904Z,15.30
2023-03-21T06:17:16.782Z,14.97
2023-03-21T06:19:52.680Z,14.03
2023-03-21T06:22:31.900Z,13.87
2023-03-21T06:25:01.586Z,18.97
2023-03-21T06:27:30.213Z,19.40
2023-03-21T06:29:59.144Z,17.57
2023-03-21T06:32:29.002Z,18.10
2023-03-21T06:35:02.060Z,17.03
2023-03-21T06:37:31.424Z,17.87
2023-03-21T06:39:59.440Z,18.20
2023-03-21T06:42:27.632Z,22.60
2023-03-21T06:45:01.572Z,28.87
2023-03-21T06:47:30.267Z,20.37
2023-03-21T06:49:58.419Z,25.00
2023-03-21T06:52:26.697Z,27.83
2023-03-21T06:54:56.454Z,18.97
2023-03-21T06:57:24.530Z,14.07
2023-03-21T06:59:52.595Z,14.03
2023-03-21T07:02:22.827Z,13.30
2023-03-21T07:05:17.390Z,13.40
2023-03-21T07:07:46.729Z,14.17
2023-03-21T07:10:16.072Z,12.47
2023-03-21T07:12:49.648Z,14.23
2023-03-21T07:15:22.502Z,14.47
2023-03-21T07:17:52.379Z,14.20
2023-03-21T07:20:20.809Z,13.03
2023-03-21T07:22:48.895Z,13.27
2023-03-21T07:25:20.064Z,13.10
2023-03-21T07:27:48.280Z,12.37
2023-03-21T07:30:16.826Z,11.73
2023-03-21T07:32:45.580Z,11.30
2023-03-21T07:35:16.078Z,11.13
2023-03-21T07:37:44.574Z,11.40
2023-03-21T07:40:18.065Z,11.10
2023-03-21T07:42:46.145Z,10.77
2023-03-21T07:45:19.857Z,10.70
2023-03-21T07:47:49.867Z,11.73
2023-03-21T07:50:18.355Z,10.60
2023-03-21T07:52:46.511Z,11.20
2023-03-21T07:55:14.696Z,11.23
2023-03-21T07:57:44.266Z,10.83
2023-03-21T08:00:13.831Z,10.13
2023-03-21T08:02:43.270Z,9.97
2023-03-21T08:05:11.951Z,11.27
2023-03-21T08:07:39.941Z,9.97
2023-03-21T08:10:10.746Z,10.40
2023-03-21T08:12:38.765Z,9.93
2023-03-21T08:15:09.772Z,11.43
2023-03-21T08:17:39.802Z,10.77
2023-03-21T08:20:10.224Z,14.77
2023-03-21T08:22:38.481Z,17.00
2023-03-21T08:25:08.290Z,15.40
2023-03-21T08:27:36.384Z,11.60
2023-03-21T08:30:04.758Z,10.37
2023-03-21T08:32:34.175Z,8.37
2023-03-21T08:35:03.211Z,8.10
2023-03-21T08:37:31.330Z,8.33
2023-03-21T08:39:59.500Z,8.13
2023-03-21T08:42:27.469Z,7.80
2023-03-21T08:44:55.453Z,7.70
2023-03-21T08:47:23.447Z,8.10
2023-03-21T08:49:52.818Z,8.27
2023-03-21T08:52:20.831Z,8.03
2023-03-21T08:54:48.776Z,6.97
2023-03-21T08:57:16.956Z,6.70
2023-03-21T08:59:44.887Z,7.73
2023-03-21T09:02:15.759Z,7.93
2023-03-21T09:04:44.903Z,8.37
2023-03-21T09:07:17.360Z,8.27
2023-03-21T09:09:50.722Z,8.33
2023-03-21T09:12:18.845Z,8.80
2023-03-21T09:14:46.754Z,9.13
2023-03-21T09:17:14.761Z,8.83
2023-03-21T09:19:42.965Z,8.20
2023-03-21T09:22:17.425Z,8.83
2023-03-21T09:24:47.612Z,8.90
2023-03-21T09:27:19.218Z,8.37
2023-03-21T09:29:48.335Z,7.80
2023-03-21T09:32:18.185Z,7.63
2023-03-21T09:34:46.377Z,6.57
2023-03-21T09:37:14.340Z,6.53
2023-03-21T09:39:42.971Z,7.10
2023-03-21T09:42:35.325Z,6.17
2023-03-21T09:45:11.496Z,6.00
2023-03-21T09:47:49.664Z,6.37
2023-03-21T09:50:21.921Z,6.37
2023-03-21T09:52:57.089Z,6.60
2023-03-21T09:55:30.823Z,6.97
2023-03-21T09:58:06.735Z,7.57
2023-03-21T10:00:39.756Z,7.00
2023-03-21T10:03:19.400Z,7.10
2023-03-21T10:05:48.503Z,8.03
2023-03-21T10:08:24.455Z,9.30
2023-03-21T10:10:54.446Z,8.83
2023-03-21T10:13:27.284Z,11.77
2023-03-21T10:15:58.757Z,11.90
2023-03-21T10:18:30.281Z,11.00
2023-03-21T10:20:58.951Z,16.53
2023-03-21T10:23:29.744Z,10.40
2023-03-21T10:26:00.468Z,8.57
2023-03-21T10:28:46.121Z,8.17
2023-03-21T10:31:25.094Z,8.77
2023-03-21T10:33:55.543Z,7.90
2023-03-21T10:36:26.377Z,8.60
2023-03-21T10:38:57.307Z,7.27
2023-03-21T10:41:25.312Z,7.53
2023-03-21T10:44:09.468Z,8.13
2023-03-21T10:46:37.587Z,7.00
2023-03-21T10:49:09.169Z,6.73
2023-03-21T10:51:39.069Z,6.90
2023-03-21T10:54:09.968Z,7.10
2023-03-21T10:56:39.908Z,7.17
2023-03-21T10:59:17.609Z,7.57
2023-03-21T11:01:50.404Z,8.13
2023-03-21T11:04:21.469Z,7.00
2023-03-21T11:06:54.861Z,6.60
2023-03-21T11:09:25.084Z,6.17
2023-03-21T11:11:55.802Z,6.30
2023-03-21T11:14:35.016Z,6.10
2023-03-21T11:17:03.161Z,6.17
2023-03-21T11:19:33.350Z,5.67
2023-03-21T11:22:06.903Z,5.40
2023-03-21T11:24:36.633Z,5.93
2023-03-21T11:27:08.322Z,5.70
2023-03-21T11:29:40.495Z,6.37
2023-03-21T11:32:13.292Z,6.30
2023-03-21T11:34:48.281Z,6.77
2023-03-21T11:37:22.267Z,6.83
2023-03-21T11:39:57.145Z,11.53
2023-03-21T11:42:30.308Z,14.90
2023-03-21T11:45:04.073Z,10.70
2023-03-21T11:47:32.543Z,10.87
2023-03-21T11:50:05.000Z,9.63
2023-03-21T11:52:39.774Z,6.83
2023-03-21T11:55:21.888Z,6.50
2023-03-21T11:58:05.444Z,5.70
2023-03-21T12:00:54.713Z,6.00
2023-03-21T12:03:47.584Z,5.77
2023-03-21T12:06:23.959Z,5.90
2023-03-21T12:09:03.984Z,5.77
2023-03-21T12:11:42.261Z,6.10
2023-03-21T12:14:18.342Z,6.43
2023-03-21T12:17:01.395Z,6.13
2023-03-21T12:19:52.407Z,5.87
2023-03-21T12:22:29.595Z,5.07
2023-03-21T12:25:02.469Z,5.73
2023-03-21T12:27:43.748Z,5.60
2023-03-21T12:30:23.706Z,5.70
2023-03-21T12:33:14.459Z,5.63
2023-03-21T12:36:02.211Z,5.20
2023-03-21T12:38:39.775Z,5.03
2023-03-21T12:41:23.562Z,4.70
2023-03-21T12:43:57.241Z,5.27
2023-03-21T12:46:30.421Z,6.00
2023-03-21T12:49:03.777Z,5.40
2023-03-21T12:51:35.335Z,6.10
2023-03-21T12:54:18.640Z,5.33
2023-03-21T12:56:54.000Z,4.83
2023-03-21T12:59:31.541Z,5.10
2023-03-21T13:02:05.943Z,4.87
2023-03-21T13:04:43.081Z,5.20
2023-03-21T13:07:16.704Z,4.10
2023-03-21T13:09:44.803Z,4.53
2023-03-21T13:12:33.325Z,4.77
2023-03-21T13:15:23.717Z,4.80
2023-03-21T13:18:01.113Z,4.93
2023-03-21T13:20:43.808Z,4.07
2023-03-21T13:23:13.500Z,4.07
2023-03-21T13:25:48.289Z,4.63
2023-03-21T13:28:22.237Z,4.37
2023-03-21T13:30:52.186Z,4.53
2023-03-21T13:33:25.890Z,4.13
2023-03-21T13:36:05.406Z,4.50
2023-03-21T13:38:35.097Z,4.67
2023-03-21T13:41:08.166Z,5.03
2023-03-21T13:43:45.362Z,4.93
2023-03-21T13:46:14.971Z,4.07
2023-03-21T13:48:59.795Z,3.87
2023-03-21T13:51:47.768Z,3.67
2023-03-21T13:54:22.446Z,3.50
2023-03-21T13:56:53.105Z,3.60
2023-03-21T13:59:38.014Z,3.70
2023-03-21T14:02:23.305Z,3.80
2023-03-21T14:05:05.368Z,4.07
2023-03-21T14:07:37.509Z,4.33
2023-03-21T14:10:09.706Z,4.23
2023-03-21T14:12:41.932Z,4.30
2023-03-21T14:15:19.216Z,4.30
2023-03-21T14:17:56.024Z,4.53
2023-03-21T14:20:26.794Z,4.03
2023-03-21T14:22:56.410Z,4.00
2023-03-21T14:25:29.286Z,3.90
2023-03-21T14:28:03.807Z,4.20
2023-03-21T14:30:35.309Z,4.00
2023-03-21T14:33:11.987Z,3.97
2023-03-21T14:35:42.631Z,3.77
2023-03-21T14:38:21.992Z,4.63
2023-03-21T14:40:51.825Z,4.10
2023-03-21T14:43:21.219Z,4.37
2023-03-21T14:45:52.986Z,4.40
2023-03-21T14:48:22.356Z,4.60
2023-03-21T14:50:52.650Z,4.30
2023-03-21T14:53:24.082Z,3.90
2023-03-21T14:55:58.473Z,5.23
2023-03-21T14:58:28.026Z,6.27
2023-03-21T15:00:58.972Z,7.10
2023-03-21T15:03:28.064Z,5.70
2023-03-21T15:05:57.595Z,5.10
2023-03-21T15:08:28.859Z,5.37
2023-03-21T15:11:06.954Z,5.30
2023-03-21T15:13:38.368Z,5.07
2023-03-21T15:16:08.204Z,5.03
2023-03-21T15:18:39.298Z,5.40
2023-03-21T15:21:11.258Z,4.70
2023-03-21T15:23:43.386Z,4.97
2023-03-21T15:26:16.648Z,5.23
2023-03-21T15:28:46.716Z,4.40
2023-03-21T15:31:19.966Z,4.60
2023-03-21T15:33:49.175Z,4.77
2023-03-21T15:36:22.023Z,5.77
2023-03-21T15:38:52.082Z,5.10
2023-03-21T15:41:31.985Z,6.73
2023-03-21T15:44:11.958Z,5.70
2023-03-21T15:46:44.813Z,14.37
2023-03-21T15:49:21.201Z,10.63
2023-03-21T15:51:53.414Z,7.57
2023-03-21T15:54:26.371Z,5.60
2023-03-21T15:56:55.932Z,5.60
2023-03-21T15:59:27.920Z,5.70
2023-03-21T16:01:55.953Z,5.63
2023-03-21T16:04:24.413Z,4.93
2023-03-21T16:06:57.894Z,5.30
2023-03-21T16:09:27.811Z,5.63
2023-03-21T16:11:57.267Z,5.40
2023-03-21T16:14:27.813Z,5.60
2023-03-21T16:16:57.352Z,5.43
2023-03-21T16:19:27.652Z,6.17
2023-03-21T16:21:55.658Z,5.63
2023-03-21T16:24:23.635Z,5.67
2023-03-21T16:26:53.432Z,6.87
2023-03-21T16:29:22.458Z,5.80
2023-03-21T16:31:50.663Z,5.50
2023-03-21T16:34:18.699Z,5.07
2023-03-21T16:36:47.681Z,5.10
2023-03-21T16:39:18.853Z,5.57
2023-03-21T16:41:47.218Z,5.53
2023-03-21T16:44:16.682Z,6.03
2023-03-21T16:46:44.933Z,5.50
2023-03-21T16:49:20.930Z,5.93
2023-03-21T16:51:49.221Z,5.50
2023-03-21T16:54:17.699Z,5.57
2023-03-21T16:56:48.562Z,6.47
2023-03-21T16:59:18.045Z,5.47
2023-03-21T17:01:48.196Z,6.40
2023-03-21T17:04:25.430Z,6.03
2023-03-21T17:06:55.076Z,7.97
2023-03-21T17:09:26.294Z,11.60
2023-03-21T17:11:54.600Z,12.20
2023-03-21T17:14:24.186Z,12.90
2023-03-21T17:16:52.332Z,15.10
2023-03-21T17:19:23.949Z,15.60
2023-03-21T17:21:51.954Z,14.90
2023-03-21T17:24:19.949Z,14.80
2023-03-21T17:26:48.164Z,14.50
2023-03-21T17:29:16.787Z,13.77
2023-03-21T17:31:48.205Z,14.00
2023-03-21T17:34:16.373Z,13.80
2023-03-21T17:36:47.358Z,13.20
2023-03-21T17:39:19.705Z,12.73
2023-03-21T17:41:47.727Z,12.93
2023-03-21T17:44:15.765Z,13.40
2023-03-21T17:46:45.400Z,12.90
2023-03-21T17:49:15.868Z,13.20
2023-03-21T17:51:46.840Z,12.93
2023-03-21T17:54:14.939Z,13.93
2023-03-21T17:56:42.939Z,14.50
2023-03-21T17:59:14.720Z,15.17
2023-03-21T18:01:43.058Z,17.43
2023-03-21T18:04:12.550Z,19.37
2023-03-21T18:06:41.056Z,19.73
2023-03-21T18:09:11.764Z,18.97
2023-03-21T18:11:40.870Z,31.80
2023-03-21T18:14:16.470Z,25.13
2023-03-21T18:16:46.558Z,24.37
2023-03-21T18:19:15.935Z,22.37
2023-03-21T18:21:45.256Z,22.40
2023-03-21T18:24:14.112Z,20.70
2023-03-21T18:26:43.105Z,17.70
2023-03-21T18:32:07.020Z,16.77
2023-03-21T18:34:38.260Z,16.60
2023-03-21T18:37:08.195Z,14.80
2023-03-21T18:39:37.115Z,13.70
2023-03-21T18:42:06.842Z,12.93
2023-03-21T18:44:38.639Z,14.00
2023-03-21T18:47:08.510Z,16.50
2023-03-21T18:52:29.989Z,27.47
2023-03-21T18:54:58.597Z,23.90
2023-03-21T18:57:37.859Z,23.07
2023-03-21T19:00:12.654Z,22.23
2023-03-21T19:02:45.513Z,21.17
2023-03-21T19:05:17.126Z,19.93
2023-03-21T19:07:45.579Z,21.23
2023-03-21T19:10:19.370Z,19.97
2023-03-21T19:12:48.774Z,20.10
2023-03-21T19:15:19.602Z,21.30
2023-03-21T19:18:26.494Z,21.77
2023-03-21T19:20:37.877Z,23.10
2023-03-21T19:23:08.223Z,23.57
2023-03-21T19:25:37.950Z,23.97
2023-03-21T19:28:06.385Z,22.80
2023-03-21T19:30:34.801Z,22.70
2023-03-21T19:33:02.812Z,25.20
2023-03-21T19:35:31.417Z,24.53
2023-03-21T19:38:00.813Z,25.23
2023-03-21T19:40:28.961Z,29.30
2023-03-21T19:42:57.608Z,31.10
2023-03-21T19:45:26.087Z,29.77
2023-03-21T19:47:54.052Z,31.13
2023-03-21T19:53:12.422Z,35.30
2023-03-21T19:55:40.728Z,38.27
2023-03-21T19:58:08.714Z,42.30
2023-03-21T20:00:38.063Z,42.20
2023-03-21T20:03:08.760Z,44.20
2023-03-21T20:05:36.830Z,34.67
2023-03-21T20:08:06.935Z,28.77
2023-03-21T20:10:39.392Z,24.27
2023-03-21T20:13:07.778Z,21.93
2023-03-21T20:15:45.997Z,20.33
2023-03-21T20:18:15.925Z,23.87
2023-03-21T20:20:43.956Z,25.47
2023-03-21T20:23:11.912Z,22.93
2023-03-21T20:25:44.918Z,23.33
2023-03-21T20:28:17.178Z,23.93
2023-03-21T20:30:53.288Z,26.43
2023-03-21T20:33:30.782Z,29.70
2023-03-21T20:38:51.969Z,32.87
2023-03-21T20:41:21.350Z,32.13
2023-03-21T20:46:37.945Z,34.97
2023-03-21T20:49:07.334Z,33.00
2023-03-21T20:54:24.104Z,31.13
2023-03-21T20:56:53.915Z,30.77
2023-03-21T20:59:27.238Z,31.37
2023-03-21T21:01:57.320Z,35.90
2023-03-21T21:04:44.365Z,33.13
2023-03-21T21:07:15.854Z,32.70
2023-03-21T21:09:46.269Z,33.77
2023-03-21T21:12:16.801Z,33.43
2023-03-21T21:14:47.397Z,31.03
2023-03-21T21:17:40.358Z,31.83
2023-03-21T21:20:14.929Z,31.60
2023-03-21T21:22:46.070Z,31.33
2023-03-21T21:25:25.125Z,31.27
2023-03-21T21:27:54.902Z,31.90
2023-03-21T21:30:22.976Z,32.80
2023-03-21T21:32:50.968Z,37.93
2023-03-21T21:35:20.562Z,36.03
2023-03-21T21:37:48.892Z,40.10
2023-03-21T21:40:20.490Z,39.83
2023-03-21T21:42:48.673Z,38.77
2023-03-21T21:45:18.932Z,38.47
2023-03-21T21:47:47.267Z,39.30
2023-03-21T21:50:15.879Z,38.00
2023-03-21T21:52:52.489Z,43.27
2023-03-21T21:55:20.646Z,41.27
2023-03-21T21:57:50.281Z,41.67
2023-03-21T22:00:21.471Z,41.80
2023-03-21T22:02:52.365Z,41.77
2023-03-21T22:05:21.070Z,44.73
2023-03-21T22:07:49.918Z,43.10
2023-03-21T22:10:18.017Z,41.33
2023-03-21T22:12:46.145Z,40.57
2023-03-21T22:15:14.359Z,39.07
2023-03-21T22:17:43.709Z,37.80
2023-03-21T22:20:14.822Z,39.47
2023-03-21T22:22:43.048Z,38.43
2023-03-21T22:25:13.367Z,42.90
2023-03-21T22:27:41.820Z,39.33
2023-03-21T22:30:13.799Z,40.70
2023-03-21T22:32:43.142Z,39.17
2023-03-21T22:35:11.787Z,37.87
2023-03-21T22:37:41.605Z,38.13
2023-03-21T22:40:11.755Z,37.03
2023-03-21T22:42:40.792Z,35.43
2023-03-21T22:45:10.287Z,36.83
2023-03-21T22:47:38.742Z,35.70
2023-03-21T22:50:09.251Z,36.10
2023-03-21T22:52:37.224Z,35.43
2023-03-21T22:55:06.093Z,36.20
2023-03-21T22:57:34.022Z,34.43
2023-03-21T23:00:01.975Z,34.83
2023-03-21T23:02:30.018Z,36.10
2023-03-21T23:04:57.949Z,38.40
2023-03-21T23:07:27.255Z,35.50
2023-03-21T23:09:57.131Z,37.63
2023-03-21T23:12:25.174Z,38.60
2023-03-21T23:14:53.262Z,36.33
2023-03-21T23:17:21.230Z,35.27
2023-03-21T23:19:49.145Z,37.17
2023-03-21T23:22:17.100Z,38.77
2023-03-21T23:24:47.013Z,38.37
2023-03-21T23:27:15.177Z,40.83
2023-03-21T23:29:43.848Z,42.77
2023-03-21T23:32:11.884Z,39.50
2023-03-21T23:34:39.826Z,41.53
2023-03-21T23:37:08.000Z,45.50
2023-03-21T23:39:36.135Z,47.17
2023-03-21T23:42:06.415Z,44.33
2023-03-21T23:44:34.710Z,41.03
2023-03-21T23:47:02.651Z,39.27
2023-03-21T23:49:33.772Z,43.53
2023-03-21T23:52:01.839Z,38.10
2023-03-21T23:54:29.805Z,35.53
2023-03-21T23:56:57.887Z,37.23
2023-03-21T23:59:27.527Z,36.63
